createdAt,value
2018-01-03T00:01:13.142Z,1.07
2018-01-03T00:03:46.074Z,1.70
2018-01-03T00:06:18.930Z,1.80
2018-01-03T00:08:50.321Z,2.03
2018-01-03T00:11:22.344Z,2.40
2018-01-03T00:13:54.237Z,2.33
2018-01-03T00:16:25.360Z,3.37
2018-01-03T00:18:56.210Z,3.00
2018-01-03T00:21:27.881Z,2.30
2018-01-03T00:23:58.608Z,3.00
2018-01-03T00:26:29.482Z,2.77
2018-01-03T00:29:40.750Z,3.00
2018-01-03T00:32:11.699Z,2.90
2018-01-03T00:34:44.211Z,3.10
2018-01-03T00:37:15.010Z,5.30
2018-01-03T00:39:48.333Z,3.40
2018-01-03T00:42:19.104Z,3.80
2018-01-03T00:45:29.597Z,3.13
2018-01-03T00:48:02.388Z,4.53
2018-01-03T00:50:33.824Z,3.87
2018-01-03T00:53:05.204Z,3.83
2018-01-03T00:55:35.951Z,3.23
2018-01-03T00:58:07.854Z,3.70
2018-01-03T01:00:39.064Z,3.60
2018-01-03T01:03:12.573Z,3.57
2018-01-03T01:05:46.215Z,3.27
2018-01-03T01:08:18.765Z,2.80
2018-01-03T01:10:51.587Z,4.23
2018-01-03T01:13:24.004Z,3.27
2018-01-03T01:26:22.648Z,3.70
2018-01-03T01:28:54.750Z,3.40
2018-01-03T01:38:10.663Z,3.80
2018-01-03T01:40:42.842Z,3.80
2018-01-03T01:43:13.920Z,3.50
2018-01-03T01:49:47.242Z,2.73
2018-01-03T01:52:19.179Z,3.20
2018-01-03T01:54:49.219Z,2.70
2018-01-03T01:57:21.076Z,2.80
2018-01-03T01:59:51.803Z,2.70
2018-01-03T02:02:26.509Z,2.40
2018-01-03T02:04:57.777Z,3.07
2018-01-03T02:07:29.519Z,2.60
2018-01-03T02:10:01.444Z,3.10
2018-01-03T02:12:29.943Z,2.87
2018-01-03T02:15:49.530Z,3.27
2018-01-03T02:18:21.454Z,3.07
2018-01-03T02:20:54.318Z,3.70
2018-01-03T02:23:28.059Z,2.90
2018-01-03T02:25:59.710Z,3.27
2018-01-03T02:28:31.111Z,2.23
2018-01-03T02:31:04.046Z,2.77
2018-01-03T02:33:36.247Z,2.27
2018-01-03T02:36:08.364Z,2.40
2018-01-03T02:38:40.341Z,2.47
2018-01-03T02:41:13.804Z,2.33
2018-01-03T02:43:45.112Z,2.70
2018-01-03T02:46:20.543Z,3.53
2018-01-03T02:48:55.692Z,3.47
2018-01-03T02:51:32.070Z,3.33
2018-01-03T02:54:14.075Z,3.10
2018-01-03T02:56:46.148Z,3.50
2018-01-03T02:59:25.410Z,3.90
2018-01-03T03:08:44.766Z,3.37
2018-01-03T03:11:17.140Z,3.80
2018-01-03T03:13:48.996Z,3.50
2018-01-03T03:16:20.281Z,4.03
2018-01-03T03:18:55.281Z,4.43
2018-01-03T03:21:26.113Z,4.87
2018-01-03T03:23:57.906Z,4.30
2018-01-03T03:26:29.067Z,4.53
2018-01-03T03:29:00.459Z,5.47
2018-01-03T03:31:32.299Z,5.50
2018-01-03T03:34:03.716Z,5.20
2018-01-03T03:36:38.705Z,5.27
2018-01-03T03:39:10.917Z,5.33
2018-01-03T03:41:44.705Z,5.13
2018-01-03T03:44:15.128Z,4.93
2018-01-03T03:57:30.069Z,5.23
2018-01-03T04:00:01.003Z,4.67
2018-01-03T04:02:52.587Z,4.93
2018-01-03T04:05:23.816Z,4.50
2018-01-03T04:07:55.068Z,5.50
2018-01-03T04:10:28.074Z,6.03
2018-01-03T04:12:59.861Z,4.83
2018-01-03T04:15:31.321Z,4.60
2018-01-03T04:18:39.431Z,5.50
2018-01-03T04:21:10.545Z,4.20
2018-01-03T04:23:42.460Z,4.97
2018-01-03T04:26:16.673Z,5.53
2018-01-03T04:28:48.386Z,5.67
2018-01-03T04:31:19.525Z,5.50
2018-01-03T04:41:16.050Z,5.23
2018-01-03T04:43:47.998Z,5.33
2018-01-03T04:46:19.112Z,5.13
2018-01-03T04:49:11.710Z,5.63
2018-01-03T04:51:42.485Z,4.97
2018-01-03T04:54:17.384Z,5.23
2018-01-03T04:56:48.229Z,5.33
2018-01-03T04:59:19.590Z,5.87
2018-01-03T05:01:51.427Z,4.47
2018-01-03T05:04:24.585Z,5.60
2018-01-03T05:06:56.248Z,5.17
2018-01-03T05:09:27.462Z,4.50
2018-01-03T05:11:59.558Z,5.53
2018-01-03T05:14:31.039Z,4.40
2018-01-03T05:17:02.456Z,4.10
2018-01-03T05:19:34.258Z,4.23
2018-01-03T05:22:05.986Z,4.27
2018-01-03T05:24:37.445Z,4.73
2018-01-03T05:27:09.561Z,4.17
2018-01-03T05:29:41.084Z,4.57
2018-01-03T05:32:12.812Z,4.60
2018-01-03T05:34:43.752Z,4.83
2018-01-03T05:37:15.796Z,4.43
2018-01-03T05:39:47.234Z,4.37
2018-01-03T05:42:19.593Z,3.93
2018-01-03T05:44:51.583Z,4.10
2018-01-03T05:47:24.742Z,4.67
2018-01-03T05:50:38.459Z,4.33
2018-01-03T05:53:08.770Z,4.10
2018-01-03T05:55:39.292Z,4.03
2018-01-03T05:58:09.637Z,4.30
2018-01-03T06:00:40.465Z,3.67
2018-01-03T06:03:09.518Z,4.10
2018-01-03T06:05:40.021Z,4.50
2018-01-03T06:08:11.934Z,3.50
2018-01-03T06:10:41.119Z,3.97
2018-01-03T06:13:12.027Z,3.73
2018-01-03T06:15:44.079Z,3.67
2018-01-03T06:18:14.975Z,4.43
2018-01-03T06:21:30.325Z,5.07
2018-01-03T06:24:05.417Z,4.83
2018-01-03T06:26:38.065Z,3.73
2018-01-03T06:29:09.646Z,3.40
2018-01-03T06:31:39.688Z,3.57
2018-01-03T06:40:17.683Z,3.33
2018-01-03T06:42:51.993Z,3.37
2018-01-03T06:45:24.629Z,3.43
2018-01-03T06:47:54.731Z,3.60
2018-01-03T06:51:04.540Z,3.17
2018-01-03T06:53:36.514Z,3.30
2018-01-03T06:56:08.702Z,4.00
2018-01-03T06:58:39.399Z,4.23
2018-01-03T07:01:10.286Z,3.60
2018-01-03T07:03:46.978Z,3.50
2018-01-03T07:06:31.128Z,3.53
2018-01-03T07:09:03.756Z,3.80
2018-01-03T07:11:38.715Z,3.63
2018-01-03T07:14:11.615Z,4.90
2018-01-03T07:16:42.610Z,4.10
2018-01-03T07:19:17.404Z,4.40
2018-01-03T07:25:27.247Z,5.27
2018-01-03T07:28:01.256Z,4.20
2018-01-03T07:30:34.156Z,5.57
2018-01-03T07:33:04.005Z,4.97
2018-01-03T07:42:21.893Z,4.83
2018-01-03T07:44:55.128Z,4.83
2018-01-03T07:47:28.564Z,4.83
2018-01-03T07:50:01.154Z,5.13
2018-01-03T07:55:54.196Z,4.30
2018-01-03T07:58:25.760Z,5.00
2018-01-03T08:00:57.871Z,5.33
2018-01-03T08:03:31.400Z,5.10
2018-01-03T08:06:02.418Z,5.20
2018-01-03T08:08:33.560Z,4.60
2018-01-03T08:11:09.471Z,4.23
2018-01-03T08:13:40.533Z,5.80
2018-01-03T08:16:10.469Z,4.33
2018-01-03T08:18:42.402Z,4.77
2018-01-03T08:21:24.604Z,3.97
2018-01-03T08:23:55.541Z,4.60
2018-01-03T08:26:24.696Z,4.03
2018-01-03T08:28:55.533Z,5.10
2018-01-03T08:31:24.761Z,4.80
2018-01-03T08:33:56.611Z,4.93
2018-01-03T08:36:38.190Z,4.67
2018-01-03T08:39:11.199Z,5.43
2018-01-03T08:41:45.635Z,4.77
2018-01-03T08:44:18.803Z,4.80
2018-01-03T08:46:51.392Z,5.30
2018-01-03T08:49:26.441Z,5.23
2018-01-03T08:52:20.925Z,4.27
2018-01-03T08:54:56.732Z,4.57
2018-01-03T09:00:31.796Z,3.70
2018-01-03T09:03:03.445Z,3.70
2018-01-03T09:05:37.705Z,4.27
2018-01-03T09:08:11.904Z,4.13
2018-01-03T09:10:41.466Z,3.07
2018-01-03T09:13:15.667Z,4.27
2018-01-03T09:15:49.113Z,4.03
2018-01-03T09:18:19.225Z,3.70
2018-01-03T09:20:48.442Z,3.70
2018-01-03T09:34:06.812Z,4.77
2018-01-03T09:36:36.992Z,4.17
2018-01-03T09:39:28.758Z,5.33
2018-01-03T09:42:01.699Z,4.63
2018-01-03T09:44:31.328Z,3.93
2018-01-03T09:47:03.357Z,4.70
2018-01-03T09:49:34.035Z,4.57
2018-01-03T09:52:07.533Z,4.97
2018-01-03T09:54:42.793Z,5.40
2018-01-03T09:57:18.211Z,5.33
2018-01-03T09:59:51.809Z,4.57
2018-01-03T10:02:22.621Z,4.80
2018-01-03T10:04:56.032Z,5.03
2018-01-03T10:07:27.190Z,6.07
2018-01-03T10:13:40.404Z,5.67
2018-01-03T10:16:13.901Z,6.17
2018-01-03T10:18:43.927Z,4.90
2018-01-03T10:21:18.436Z,5.40
2018-01-03T10:23:47.601Z,6.00
2018-01-03T10:26:19.661Z,5.03
2018-01-03T10:28:52.960Z,5.43
2018-01-03T10:31:26.718Z,5.20
2018-01-03T10:34:02.439Z,6.07
2018-01-03T10:36:37.000Z,6.90
2018-01-03T10:39:27.793Z,5.87
2018-01-03T10:41:57.805Z,4.80
2018-01-03T10:44:29.179Z,5.57
2018-01-03T10:47:00.616Z,5.80
2018-01-03T10:49:29.802Z,5.50
2018-01-03T10:51:59.579Z,4.97
2018-01-03T11:01:52.138Z,6.00
2018-01-03T11:04:22.689Z,7.03
2018-01-03T11:06:52.673Z,6.03
2018-01-03T11:09:48.276Z,6.10
2018-01-03T11:12:22.129Z,6.23
2018-01-03T11:14:52.930Z,6.33
2018-01-03T11:17:24.471Z,6.53
2018-01-03T11:22:56.371Z,5.43
2018-01-03T11:29:09.356Z,5.50
2018-01-03T11:31:40.577Z,5.97
2018-01-03T11:34:12.849Z,5.33
2018-01-03T11:36:44.829Z,7.23
2018-01-03T11:56:08.948Z,7.07
2018-01-03T11:58:40.503Z,6.50
2018-01-03T12:01:15.554Z,6.50
2018-01-03T12:03:47.010Z,7.23
2018-01-03T12:06:15.898Z,6.47
2018-01-03T12:08:48.429Z,6.10
2018-01-03T12:11:40.724Z,6.03
2018-01-03T12:14:09.886Z,5.87
2018-01-03T12:16:43.732Z,5.60
2018-01-03T12:19:13.748Z,5.30
2018-01-03T12:21:45.879Z,5.83
2018-01-03T12:24:19.678Z,6.23
2018-01-03T12:26:49.840Z,6.17
2018-01-03T12:29:20.920Z,5.57
2018-01-03T12:31:50.663Z,5.83
2018-01-03T12:34:24.963Z,5.53
2018-01-03T12:37:00.972Z,6.10
2018-01-03T12:39:32.968Z,7.07
2018-01-03T12:52:10.229Z,7.37
2018-01-03T12:54:40.088Z,6.10
2018-01-03T12:57:44.606Z,6.03
2018-01-03T13:00:14.417Z,6.77
2018-01-03T13:02:46.011Z,6.50
2018-01-03T13:05:21.213Z,6.27
2018-01-03T13:07:55.867Z,6.33
2018-01-03T13:10:25.691Z,5.23
2018-01-03T13:20:20.193Z,6.33
2018-01-03T13:22:52.811Z,5.90
2018-01-03T13:25:29.467Z,6.43
2018-01-03T13:31:46.432Z,6.20
2018-01-03T13:34:17.243Z,5.77
2018-01-03T13:36:47.636Z,6.50
2018-01-03T13:39:19.819Z,6.03
2018-01-03T13:42:06.536Z,6.57
2018-01-03T13:44:39.895Z,5.90
2018-01-03T13:47:08.768Z,6.07
2018-01-03T13:49:42.021Z,5.77
2018-01-03T13:52:17.061Z,6.47
2018-01-03T13:54:50.377Z,6.83
2018-01-03T13:57:19.746Z,6.20
2018-01-03T13:59:52.984Z,6.10
2018-01-03T14:02:23.364Z,5.93
2018-01-03T14:04:53.341Z,6.00
2018-01-03T14:07:29.104Z,6.77
2018-01-03T14:10:06.572Z,5.57
2018-01-03T14:12:43.402Z,6.53
2018-01-03T14:15:19.802Z,5.90
2018-01-03T14:17:52.904Z,6.37
2018-01-03T14:20:29.346Z,6.70
2018-01-03T14:23:02.261Z,6.17
2018-01-03T14:25:31.693Z,5.87
2018-01-03T14:34:46.613Z,6.33
2018-01-03T14:37:18.748Z,6.07
2018-01-03T14:39:50.428Z,6.63
2018-01-03T14:42:33.987Z,6.70
2018-01-03T14:45:05.917Z,6.20
2018-01-03T14:47:37.281Z,6.53
2018-01-03T14:50:08.370Z,7.07
2018-01-03T14:52:42.424Z,6.87
2018-01-03T14:55:13.566Z,6.67
2018-01-03T15:04:29.196Z,6.20
2018-01-03T15:07:03.224Z,6.70
2018-01-03T15:09:34.851Z,6.20
2018-01-03T15:12:04.914Z,6.77
2018-01-03T15:17:38.542Z,6.43
2018-01-03T15:20:09.986Z,6.43
2018-01-03T15:22:46.130Z,6.60
2018-01-03T15:25:22.394Z,6.57
2018-01-03T15:28:03.139Z,7.23
2018-01-03T15:30:35.842Z,6.37
2018-01-03T15:33:09.388Z,6.50
2018-01-03T15:35:41.190Z,6.27
2018-01-03T15:38:17.799Z,7.60
2018-01-03T15:40:48.137Z,7.77
2018-01-03T15:43:22.960Z,8.07
2018-01-03T15:45:53.733Z,7.27
2018-01-03T15:48:24.680Z,7.03
2018-01-03T15:50:54.649Z,7.93
2018-01-03T15:53:28.589Z,7.43
2018-01-03T15:56:01.674Z,6.63
2018-01-03T15:58:33.455Z,8.60
2018-01-03T16:01:06.442Z,6.30
2018-01-03T16:03:40.108Z,6.83
2018-01-03T16:06:11.840Z,7.13
2018-01-03T16:08:44.931Z,6.40
2018-01-03T16:11:16.944Z,6.80
2018-01-03T16:13:48.930Z,6.67
2018-01-03T16:16:20.373Z,7.13
2018-01-03T16:18:49.953Z,6.87
2018-01-03T16:21:21.062Z,7.50
2018-01-03T16:23:56.466Z,7.13
2018-01-03T16:26:29.241Z,7.07
2018-01-03T16:33:02.268Z,6.73
2018-01-03T16:35:36.781Z,5.97
2018-01-03T16:38:13.405Z,6.90
2018-01-03T16:40:42.227Z,6.93
2018-01-03T16:43:14.463Z,7.17
2018-01-03T16:45:53.750Z,7.30
2018-01-03T16:48:26.729Z,6.83
2018-01-03T16:51:01.664Z,6.40
2018-01-03T16:53:35.669Z,6.70
2018-01-03T16:56:07.671Z,6.20
2018-01-03T16:58:40.524Z,7.07
2018-01-03T17:07:59.787Z,7.50
2018-01-03T17:10:32.030Z,7.23
2018-01-03T17:13:04.985Z,7.93
2018-01-03T17:25:48.327Z,7.03
2018-01-03T17:28:22.292Z,6.37
2018-01-03T17:30:59.141Z,6.40
2018-01-03T17:33:31.197Z,7.23
2018-01-03T17:36:01.102Z,8.17
2018-01-03T17:38:30.842Z,6.43
2018-01-03T17:41:01.249Z,6.70
2018-01-03T17:43:34.753Z,8.00
2018-01-03T17:46:53.207Z,6.63
2018-01-03T17:49:22.228Z,6.40
2018-01-03T17:51:52.410Z,6.37
2018-01-03T17:54:24.903Z,6.43
2018-01-03T17:56:55.889Z,6.40
2018-01-03T17:59:27.069Z,6.50
2018-01-03T18:02:36.631Z,7.43
2018-01-03T18:05:07.112Z,6.43
2018-01-03T18:07:39.595Z,6.30
2018-01-03T18:10:09.009Z,6.23
2018-01-03T18:12:38.257Z,6.80
2018-01-03T18:15:12.329Z,6.50
2018-01-03T18:18:06.712Z,6.60
2018-01-03T18:20:38.891Z,6.47
2018-01-03T18:23:08.180Z,6.57
2018-01-03T18:25:42.164Z,8.13
2018-01-03T18:28:12.020Z,7.40
2018-01-03T18:30:41.935Z,7.07
2018-01-03T18:40:18.401Z,6.57
2018-01-03T18:42:51.607Z,7.27
2018-01-03T18:45:22.997Z,6.50
2018-01-03T18:58:03.598Z,7.07
2018-01-03T19:00:35.668Z,6.80
2018-01-03T19:03:27.757Z,7.10
2018-01-03T19:05:57.956Z,6.57
2018-01-03T19:08:31.076Z,6.73
2018-01-03T19:11:04.231Z,7.03
2018-01-03T19:13:35.325Z,6.30
2018-01-03T19:16:06.173Z,7.17
2018-01-03T19:32:43.297Z,6.70
2018-01-03T19:35:15.290Z,6.53
2018-01-03T19:37:49.320Z,6.67
2018-01-03T19:40:21.336Z,7.40
2018-01-03T19:42:53.991Z,6.63
2018-01-03T19:45:26.037Z,6.60
2018-01-03T19:48:38.341Z,6.07
2018-01-03T19:51:10.741Z,6.27
2018-01-03T19:53:43.177Z,6.63
2018-01-03T19:56:14.664Z,6.43
2018-01-03T19:58:46.311Z,7.27
2018-01-03T20:01:23.002Z,7.20
2018-01-03T20:03:58.398Z,7.60
2018-01-03T20:06:32.827Z,7.40
2018-01-03T20:09:29.933Z,7.60
2018-01-03T20:11:59.642Z,7.37
2018-01-03T20:14:35.946Z,7.70
2018-01-03T20:17:31.428Z,7.20
2018-01-03T20:27:28.624Z,7.17
2018-01-03T20:30:12.343Z,6.93
2018-01-03T20:32:43.285Z,7.73
2018-01-03T20:39:12.938Z,7.53
2018-01-03T20:41:43.953Z,7.57
2018-01-03T20:44:18.055Z,7.40
2018-01-03T20:46:49.777Z,6.93
2018-01-03T20:49:21.566Z,8.60
2018-01-03T20:51:55.589Z,7.73
2018-01-03T20:54:27.214Z,7.70
2018-01-03T20:56:59.451Z,7.67
2018-01-03T20:59:34.334Z,7.40
2018-01-03T21:02:09.211Z,7.43
2018-01-03T21:08:04.066Z,8.07
2018-01-03T21:10:35.710Z,7.03
2018-01-03T21:13:07.529Z,6.53
2018-01-03T21:15:39.731Z,8.10
2018-01-03T21:18:11.141Z,7.33
2018-01-03T21:20:45.488Z,8.03
2018-01-03T21:23:18.770Z,7.87
2018-01-03T21:25:53.237Z,7.27
2018-01-03T21:28:25.195Z,7.03
2018-01-03T21:31:02.692Z,7.83
2018-01-03T21:33:39.204Z,8.27
2018-01-03T21:43:33.687Z,7.97
2018-01-03T21:46:08.152Z,6.87
2018-01-03T21:48:50.091Z,8.70
2018-01-03T21:51:26.203Z,7.87
2018-01-03T21:53:58.165Z,7.50
2018-01-03T21:56:34.011Z,7.50
2018-01-03T21:59:09.418Z,8.30
2018-01-03T22:01:41.467Z,8.10
2018-01-03T22:04:12.972Z,7.23
2018-01-03T22:06:45.621Z,7.07
2018-01-03T22:09:24.636Z,7.63
2018-01-03T22:11:57.428Z,7.90
2018-01-03T22:14:34.566Z,7.50
2018-01-03T22:17:11.331Z,7.23
2018-01-03T22:19:47.887Z,8.30
2018-01-03T22:22:19.531Z,7.47
2018-01-03T22:24:50.840Z,8.37
2018-01-03T22:27:22.838Z,8.40
2018-01-03T22:29:55.107Z,8.80
2018-01-03T22:32:28.328Z,7.07
2018-01-03T22:35:00.804Z,7.17
2018-01-03T22:37:34.557Z,7.10
2018-01-03T22:40:10.370Z,7.73
2018-01-03T22:42:44.452Z,7.23
2018-01-03T22:45:18.366Z,8.37
2018-01-03T22:47:55.181Z,7.50
2018-01-03T22:50:27.149Z,7.70
2018-01-03T22:53:00.548Z,7.90
2018-01-03T22:55:37.811Z,7.20
2018-01-03T22:58:12.319Z,7.47
2018-01-03T23:00:50.825Z,7.83
2018-01-03T23:03:25.467Z,6.83
2018-01-03T23:06:02.165Z,6.80
2018-01-03T23:08:33.568Z,7.90
2018-01-03T23:11:06.566Z,7.03
2018-01-03T23:13:49.806Z,6.73
2018-01-03T23:16:24.221Z,7.23
2018-01-03T23:19:00.512Z,7.63
2018-01-03T23:21:41.264Z,6.30
2018-01-03T23:24:13.852Z,7.20
2018-01-03T23:26:47.108Z,7.17
2018-01-03T23:29:18.412Z,6.93
2018-01-03T23:31:49.574Z,6.03
2018-01-03T23:34:21.449Z,6.30
2018-01-03T23:36:54.952Z,6.67
2018-01-03T23:39:25.769Z,6.13
2018-01-03T23:41:59.354Z,5.30
2018-01-03T23:44:30.770Z,5.47
2018-01-03T23:47:01.149Z,5.23
2018-01-03T23:49:33.357Z,4.40
2018-01-03T23:52:03.383Z,5.07
2018-01-03T23:54:34.092Z,4.67
2018-01-03T23:57:04.409Z,5.57
2018-01-03T23:59:34.400Z,4.63
